sensor_id;sensor_type;location;lat;lon;timestamp;temperature;humidity
19256;DHT22;9762;52.490;13.410;2024-03-23T00:55:07;13.60;95.30
19256;DHT22;9762;52.490;13.410;2024-03-23T00:57:33;13.60;95.20
19256;DHT22;9762;52.490;13.410;2024-03-23T00:59:59;13.70;95.20
19256;DHT22;9762;52.490;13.410;2024-03-23T01:02:24;13.70;95.30
19256;DHT22;9762;52.490;13.410;2024-03-23T01:04:50;13.70;95.30
19256;DHT22;9762;52.490;13.410;2024-03-23T01:07:15;13.70;95.30
19256;DHT22;9762;52.490;13.410;2024-03-23T01:09:41;13.80;95.20
19256;DHT22;9762;52.490;13.410;2024-03-23T01:12:07;13.80;95.20
19256;DHT22;9762;52.490;13.410;2024-03-23T01:14:32;13.80;95.10
19256;DHT22;9762;52.490;13.410;2024-03-23T01:16:58;13.90;95.00
19256;DHT22;9762;52.490;13.410;2024-03-23T01:19:23;13.90;94.90
19256;DHT22;9762;52.490;13.410;2024-03-23T01:21:49;13.90;94.80
19256;DHT22;9762;52.490;13.410;2024-03-23T01:24:15;13.90;94.60
19256;DHT22;9762;52.490;13.410;2024-03-23T01:26:41;13.90;94.50
19256;DHT22;9762;52.490;13.410;2024-03-23T01:29:06;13.80;94.40
19256;DHT22;9762;52.490;13.410;2024-03-23T01:31:32;13.80;94.60
19256;DHT22;9762;52.490;13.410;2024-03-23T01:33:58;13.80;94.80
19256;DHT22;9762;52.490;13.410;2024-03-23T01:36:24;13.80;94.90
19256;DHT22;9762;52.490;13.410;2024-03-23T01:38:50;13.90;94.90
19256;DHT22;9762;52.490;13.410;2024-03-23T01:41:17;13.90;94.90
19256;DHT22;9762;52.490;13.410;2024-03-23T01:43:43;13.90;94.70
19256;DHT22;9762;52.490;13.410;2024-03-23T01:46:08;13.90;94.90
19256;DHT22;9762;52.490;13.410;2024-03-23T01:48:34;14.00;94.90
19256;DHT22;9762;52.490;13.410;2024-03-23T01:51:00;14.00;94.80
19256;DHT22;9762;52.490;13.410;2024-03-23T01:53:26;14.00;94.70
19256;DHT22;9762;52.490;13.410;2024-03-23T01:55:51;14.00;94.50
19256;DHT22;9762;52.490;13.410;2024-03-23T01:58:17;13.90;94.50
19256;DHT22;9762;52.490;13.410;2024-03-23T02:00:42;13.90;94.60
19256;DHT22;9762;52.490;13.410;2024-03-23T02:03:27;13.90;94.70
19256;DHT22;9762;52.490;13.410;2024-03-23T02:05:54;13.90;94.80
19256;DHT22;9762;52.490;13.410;2024-03-23T02:08:21;13.90;94.70
19256;DHT22;9762;52.490;13.410;2024-03-23T02:10:48;13.90;94.80
19256;DHT22;9762;52.490;13.410;2024-03-23T02:13:15;13.90;94.80
19256;DHT22;9762;52.490;13.410;2024-03-23T02:15:41;13.90;94.80
19256;DHT22;9762;52.490;13.410;2024-03-23T02:18:10;13.90;94.80
19256;DHT22;9762;52.490;13.410;2024-03-23T02:20:37;13.90;94.80
19256;DHT22;9762;52.490;13.410;2024-03-23T02:23:05;13.90;94.60
19256;DHT22;9762;52.490;13.410;2024-03-23T02:25:32;13.80;94.60
19256;DHT22;9762;52.490;13.410;2024-03-23T02:27:59;13.90;94.70
19256;DHT22;9762;52.490;13.410;2024-03-23T02:30:25;13.80;94.70
19256;DHT22;9762;52.490;13.410;2024-03-23T02:32:51;13.80;94.70
19256;DHT22;9762;52.490;13.410;2024-03-23T02:35:16;13.80;94.80
19256;DHT22;9762;52.490;13.410;2024-03-23T02:37:42;13.80;94.90
19256;DHT22;9762;52.490;13.410;2024-03-23T02:40:08;13.80;95.00
19256;DHT22;9762;52.490;13.410;2024-03-23T02:42:34;13.80;95.10
19256;DHT22;9762;52.490;13.410;2024-03-23T02:44:59;13.90;95.40
19256;DHT22;9762;52.490;13.410;2024-03-23T02:47:25;13.90;94.90
19256;DHT22;9762;52.490;13.410;2024-03-23T02:49:50;13.90;95.10
19256;DHT22;9762;52.490;13.410;2024-03-23T02:52:16;13.90;95.00
19256;DHT22;9762;52.490;13.410;2024-03-23T02:54:42;13.90;95.10
19256;DHT22;9762;52.490;13.410;2024-03-23T02:57:10;13.90;95.20
19256;DHT22;9762;52.490;13.410;2024-03-23T02:59:36;14.00;95.30
19256;DHT22;9762;52.490;13.410;2024-03-23T03:02:01;14.00;95.30
19256;DHT22;9762;52.490;13.410;2024-03-23T03:04:30;14.00;95.20
19256;DHT22;9762;52.490;13.410;2024-03-23T03:06:55;13.90;95.10
19256;DHT22;9762;52.490;13.410;2024-03-23T03:09:21;13.90;94.90
19256;DHT22;9762;52.490;13.410;2024-03-23T03:11:47;13.90;94.90
19256;DHT22;9762;52.490;13.410;2024-03-23T03:14:13;13.90;95.10
19256;DHT22;9762;52.490;13.410;2024-03-23T03:16:38;13.80;95.00
19256;DHT22;9762;52.490;13.410;2024-03-23T03:19:04;13.80;95.00
19256;DHT22;9762;52.490;13.410;2024-03-23T03:21:29;13.80;95.20
19256;DHT22;9762;52.490;13.410;2024-03-23T03:23:55;13.70;95.30
19256;DHT22;9762;52.490;13.410;2024-03-23T03:26:22;13.70;95.40
19256;DHT22;9762;52.490;13.410;2024-03-23T03:28:48;13.70;95.50
19256;DHT22;9762;52.490;13.410;2024-03-23T03:31:17;13.70;95.60
19256;DHT22;9762;52.490;13.410;2024-03-23T03:33:43;13.70;95.60
19256;DHT22;9762;52.490;13.410;2024-03-23T03:36:09;13.70;95.70
19256;DHT22;9762;52.490;13.410;2024-03-23T03:38:35;13.70;95.50
19256;DHT22;9762;52.490;13.410;2024-03-23T03:41:02;13.60;95.50
19256;DHT22;9762;52.490;13.410;2024-03-23T03:43:27;13.60;95.40
19256;DHT22;9762;52.490;13.410;2024-03-23T03:45:54;13.60;95.40
19256;DHT22;9762;52.490;13.410;2024-03-23T03:48:20;13.60;95.40
19256;DHT22;9762;52.490;13.410;2024-03-23T03:50:45;13.60;95.40
19256;DHT22;9762;52.490;13.410;2024-03-23T03:53:11;13.60;95.30
19256;DHT22;9762;52.490;13.410;2024-03-23T03:55:37;13.50;95.20
19256;DHT22;9762;52.490;13.410;2024-03-23T03:58:03;13.40;94.90
19256;DHT22;9762;52.490;13.410;2024-03-23T04:00:30;13.30;94.90
19256;DHT22;9762;52.490;13.410;2024-03-23T04:02:56;13.30;95.10
19256;DHT22;9762;52.490;13.410;2024-03-23T04:05:21;13.20;95.10
19256;DHT22;9762;52.490;13.410;2024-03-23T04:07:48;13.20;95.30
19256;DHT22;9762;52.490;13.410;2024-03-23T04:10:14;13.20;95.40
19256;DHT22;9762;52.490;13.410;2024-03-23T04:12:43;13.20;95.50
19256;DHT22;9762;52.490;13.410;2024-03-23T04:15:09;13.30;95.50
19256;DHT22;9762;52.490;13.410;2024-03-23T04:17:35;13.30;95.50
19256;DHT22;9762;52.490;13.410;2024-03-23T04:20:02;13.30;95.40
19256;DHT22;9762;52.490;13.410;2024-03-23T04:22:29;13.20;95.50
19256;DHT22;9762;52.490;13.410;2024-03-23T04:24:57;13.20;95.50
19256;DHT22;9762;52.490;13.410;2024-03-23T04:27:23;13.20;95.50
19256;DHT22;9762;52.490;13.410;2024-03-23T04:29:52;13.10;95.40
19256;DHT22;9762;52.490;13.410;2024-03-23T04:32:18;13.20;95.70
19256;DHT22;9762;52.490;13.410;2024-03-23T04:34:44;13.20;95.60
19256;DHT22;9762;52.490;13.410;2024-03-23T04:37:10;13.20;95.50
19256;DHT22;9762;52.490;13.410;2024-03-23T04:39:36;13.10;95.30
19256;DHT22;9762;52.490;13.410;2024-03-23T04:42:02;13.10;95.20
19256;DHT22;9762;52.490;13.410;2024-03-23T04:44:29;13.10;95.10
19256;DHT22;9762;52.490;13.410;2024-03-23T04:46:54;13.10;94.80
19256;DHT22;9762;52.490;13.410;2024-03-23T04:49:20;13.10;94.80
19256;DHT22;9762;52.490;13.410;2024-03-23T04:51:46;13.10;95.00
19256;DHT22;9762;52.490;13.410;2024-03-23T04:54:15;13.10;95.10
19256;DHT22;9762;52.490;13.410;2024-03-23T04:56:40;13.10;94.90
19256;DHT22;9762;52.490;13.410;2024-03-23T04:59:06;13.10;94.90
19256;DHT22;9762;52.490;13.410;2024-03-23T05:01:32;13.00;94.60
19256;DHT22;9762;52.490;13.410;2024-03-23T05:03:58;12.90;95.10
19256;DHT22;9762;52.490;13.410;2024-03-23T05:06:24;12.90;95.00
19256;DHT22;9762;52.490;13.410;2024-03-23T05:08:50;12.90;95.20
19256;DHT22;9762;52.490;13.410;2024-03-23T05:11:16;12.90;95.20
19256;DHT22;9762;52.490;13.410;2024-03-23T05:13:42;12.90;95.60
19256;DHT22;9762;52.490;13.410;2024-03-23T05:16:08;12.90;95.00
19256;DHT22;9762;52.490;13.410;2024-03-23T05:18:34;12.90;94.90
19256;DHT22;9762;52.490;13.410;2024-03-23T05:21:00;12.90;94.70
19256;DHT22;9762;52.490;13.410;2024-03-23T05:23:27;12.90;94.90
19256;DHT22;9762;52.490;13.410;2024-03-23T05:25:53;12.90;94.80
19256;DHT22;9762;52.490;13.410;2024-03-23T05:28:19;13.00;94.90
19256;DHT22;9762;52.490;13.410;2024-03-23T05:30:53;13.00;94.90
19256;DHT22;9762;52.490;13.410;2024-03-23T05:33:20;13.00;94.90
19256;DHT22;9762;52.490;13.410;2024-03-23T05:35:46;13.00;94.90
19256;DHT22;9762;52.490;13.410;2024-03-23T05:38:12;13.00;94.90
19256;DHT22;9762;52.490;13.410;2024-03-23T05:40:37;13.00;94.90
19256;DHT22;9762;52.490;13.410;2024-03-23T05:43:06;13.00;94.90
19256;DHT22;9762;52.490;13.410;2024-03-23T05:45:32;13.00;95.10
19256;DHT22;9762;52.490;13.410;2024-03-23T05:47:57;13.00;95.20
19256;DHT22;9762;52.490;13.410;2024-03-23T05:50:23;13.00;95.20
19256;DHT22;9762;52.490;13.410;2024-03-23T05:52:50;13.00;95.30
19256;DHT22;9762;52.490;13.410;2024-03-23T05:55:16;13.00;95.30
19256;DHT22;9762;52.490;13.410;2024-03-23T05:57:41;13.00;95.10
19256;DHT22;9762;52.490;13.410;2024-03-23T06:00:07;13.10;95.20
19256;DHT22;9762;52.490;13.410;2024-03-23T06:02:44;13.10;94.90
19256;DHT22;9762;52.490;13.410;2024-03-23T06:05:11;13.20;95.00
19256;DHT22;9762;52.490;13.410;2024-03-23T06:07:40;13.20;94.90
19256;DHT22;9762;52.490;13.410;2024-03-23T06:10:06;13.30;94.80
19256;DHT22;9762;52.490;13.410;2024-03-23T06:12:32;13.30;94.90
19256;DHT22;9762;52.490;13.410;2024-03-23T06:14:58;13.40;94.90
19256;DHT22;9762;52.490;13.410;2024-03-23T06:17:23;13.50;95.20
19256;DHT22;9762;52.490;13.410;2024-03-23T06:19:49;13.50;95.30
19256;DHT22;9762;52.490;13.410;2024-03-23T06:22:15;13.60;95.50
19256;DHT22;9762;52.490;13.410;2024-03-23T06:24:41;13.60;95.50
19256;DHT22;9762;52.490;13.410;2024-03-23T06:27:06;13.70;95.20
19256;DHT22;9762;52.490;13.410;2024-03-23T06:29:32;13.70;94.20
19256;DHT22;9762;52.490;13.410;2024-03-23T06:31:58;13.70;94.30
19256;DHT22;9762;52.490;13.410;2024-03-23T06:34:24;13.70;94.20
19256;DHT22;9762;52.490;13.410;2024-03-23T06:36:50;13.80;94.10
19256;DHT22;9762;52.490;13.410;2024-03-23T06:39:16;13.80;94.00
19256;DHT22;9762;52.490;13.410;2024-03-23T06:41:59;13.80;93.80
19256;DHT22;9762;52.490;13.410;2024-03-23T06:44:25;13.90;93.60
19256;DHT22;9762;52.490;13.410;2024-03-23T06:46:50;13.90;93.50
19256;DHT22;9762;52.490;13.410;2024-03-23T06:49:16;13.90;93.10
19256;DHT22;9762;52.490;13.410;2024-03-23T06:51:42;13.90;93.20
19256;DHT22;9762;52.490;13.410;2024-03-23T06:54:07;13.90;93.20
19256;DHT22;9762;52.490;13.410;2024-03-23T06:56:33;13.90;93.00
19256;DHT22;9762;52.490;13.410;2024-03-23T06:58:59;13.90;93.10
19256;DHT22;9762;52.490;13.410;2024-03-23T07:01:25;14.00;93.20
19256;DHT22;9762;52.490;13.410;2024-03-23T07:03:50;14.00;92.80
19256;DHT22;9762;52.490;13.410;2024-03-23T07:06:16;14.00;92.90
19256;DHT22;9762;52.490;13.410;2024-03-23T07:08:42;14.00;93.00
19256;DHT22;9762;52.490;13.410;2024-03-23T07:11:07;14.00;92.60
19256;DHT22;9762;52.490;13.410;2024-03-23T07:13:33;14.00;92.50
19256;DHT22;9762;52.490;13.410;2024-03-23T07:15:58;14.00;92.40
19256;DHT22;9762;52.490;13.410;2024-03-23T07:18:25;14.00;91.70
19256;DHT22;9762;52.490;13.410;2024-03-23T07:20:57;13.90;91.80
19256;DHT22;9762;52.490;13.410;2024-03-23T07:23:24;13.90;91.80
19256;DHT22;9762;52.490;13.410;2024-03-23T07:26:00;13.80;92.10
19256;DHT22;9762;52.490;13.410;2024-03-23T07:28:25;13.70;92.10
19256;DHT22;9762;52.490;13.410;2024-03-23T07:31:12;13.70;92.20
19256;DHT22;9762;52.490;13.410;2024-03-23T07:33:42;13.60;92.20
19256;DHT22;9762;52.490;13.410;2024-03-23T07:36:08;13.60;92.40
19256;DHT22;9762;52.490;13.410;2024-03-23T07:38:34;13.70;92.50
19256;DHT22;9762;52.490;13.410;2024-03-23T07:41:07;13.80;92.40
19256;DHT22;9762;52.490;13.410;2024-03-23T07:43:32;13.80;92.00
19256;DHT22;9762;52.490;13.410;2024-03-23T07:45:59;13.80;92.10
19256;DHT22;9762;52.490;13.410;2024-03-23T07:48:25;13.80;92.20
19256;DHT22;9762;52.490;13.410;2024-03-23T07:51:05;13.80;91.60
19256;DHT22;9762;52.490;13.410;2024-03-23T07:53:35;13.80;91.90
19256;DHT22;9762;52.490;13.410;2024-03-23T07:56:10;13.80;92.20
19256;DHT22;9762;52.490;13.410;2024-03-23T07:58:36;13.80;92.00
19256;DHT22;9762;52.490;13.410;2024-03-23T08:01:12;13.70;91.20
19256;DHT22;9762;52.490;13.410;2024-03-23T08:03:41;13.70;91.70
19256;DHT22;9762;52.490;13.410;2024-03-23T08:06:11;13.70;91.70
19256;DHT22;9762;52.490;13.410;2024-03-23T08:08:38;13.70;91.60
19256;DHT22;9762;52.490;13.410;2024-03-23T08:11:03;13.70;91.60
19256;DHT22;9762;52.490;13.410;2024-03-23T08:13:29;13.70;91.90
19256;DHT22;9762;52.490;13.410;2024-03-23T08:16:02;13.70;91.70
19256;DHT22;9762;52.490;13.410;2024-03-23T08:18:29;13.80;92.00
19256;DHT22;9762;52.490;13.410;2024-03-23T08:21:05;13.80;92.00
19256;DHT22;9762;52.490;13.410;2024-03-23T08:23:32;13.80;91.70
19256;DHT22;9762;52.490;13.410;2024-03-23T08:26:06;13.60;91.70
19256;DHT22;9762;52.490;13.410;2024-03-23T08:28:32;13.60;91.80
19256;DHT22;9762;52.490;13.410;2024-03-23T08:31:01;13.60;92.00
19256;DHT22;9762;52.490;13.410;2024-03-23T08:33:27;13.60;91.70
19256;DHT22;9762;52.490;13.410;2024-03-23T08:36:01;13.50;91.40
19256;DHT22;9762;52.490;13.410;2024-03-23T08:38:28;13.50;91.50
19256;DHT22;9762;52.490;13.410;2024-03-23T08:43:23;13.50;91.50
19256;DHT22;9762;52.490;13.410;2024-03-23T08:45:48;13.40;91.40
19256;DHT22;9762;52.490;13.410;2024-03-23T08:48:14;13.40;91.80
19256;DHT22;9762;52.490;13.410;2024-03-23T08:50:40;13.30;91.50
19256;DHT22;9762;52.490;13.410;2024-03-23T08:53:05;13.20;91.60
19256;DHT22;9762;52.490;13.410;2024-03-23T08:55:31;13.20;91.50
19256;DHT22;9762;52.490;13.410;2024-03-23T08:57:56;13.10;91.40
19256;DHT22;9762;52.490;13.410;2024-03-23T09:00:22;13.10;91.70
19256;DHT22;9762;52.490;13.410;2024-03-23T09:02:48;13.00;91.60
19256;DHT22;9762;52.490;13.410;2024-03-23T09:05:14;12.90;91.20
19256;DHT22;9762;52.490;13.410;2024-03-23T09:10:06;12.80;90.60
19256;DHT22;9762;52.490;13.410;2024-03-23T09:12:32;12.80;90.90
19256;DHT22;9762;52.490;13.410;2024-03-23T09:14:58;12.60;91.00
19256;DHT22;9762;52.490;13.410;2024-03-23T09:17:23;12.50;91.20
19256;DHT22;9762;52.490;13.410;2024-03-23T09:19:49;12.30;91.10
19256;DHT22;9762;52.490;13.410;2024-03-23T09:22:15;12.20;91.20
19256;DHT22;9762;52.490;13.410;2024-03-23T09:24:40;12.10;90.80
19256;DHT22;9762;52.490;13.410;2024-03-23T09:27:06;12.10;91.50
19256;DHT22;9762;52.490;13.410;2024-03-23T09:29:32;12.00;91.40
19256;DHT22;9762;52.490;13.410;2024-03-23T09:31:57;12.00;91.40
19256;DHT22;9762;52.490;13.410;2024-03-23T09:34:23;11.90;91.70
19256;DHT22;9762;52.490;13.410;2024-03-23T09:36:52;11.90;91.60
19256;DHT22;9762;52.490;13.410;2024-03-23T09:39:18;11.90;91.20
19256;DHT22;9762;52.490;13.410;2024-03-23T09:41:45;12.00;91.60
19256;DHT22;9762;52.490;13.410;2024-03-23T09:44:10;11.90;91.60
19256;DHT22;9762;52.490;13.410;2024-03-23T09:46:36;12.00;91.60
19256;DHT22;9762;52.490;13.410;2024-03-23T09:49:06;12.10;91.70
19256;DHT22;9762;52.490;13.410;2024-03-23T09:51:36;12.10;91.50
19256;DHT22;9762;52.490;13.410;2024-03-23T09:54:02;12.10;91.60
19256;DHT22;9762;52.490;13.410;2024-03-23T09:56:28;12.00;91.20
19256;DHT22;9762;52.490;13.410;2024-03-23T09:59:01;11.90;90.60
19256;DHT22;9762;52.490;13.410;2024-03-23T10:01:27;11.80;91.10
19256;DHT22;9762;52.490;13.410;2024-03-23T10:03:52;11.60;90.90
19256;DHT22;9762;52.490;13.410;2024-03-23T10:06:21;11.60;91.00
19256;DHT22;9762;52.490;13.410;2024-03-23T10:08:47;11.60;91.30
19256;DHT22;9762;52.490;13.410;2024-03-23T10:11:16;11.70;91.40
19256;DHT22;9762;52.490;13.410;2024-03-23T10:13:43;11.70;91.40
19256;DHT22;9762;52.490;13.410;2024-03-23T10:16:09;11.70;91.00
19256;DHT22;9762;52.490;13.410;2024-03-23T10:18:39;11.70;91.10
19256;DHT22;9762;52.490;13.410;2024-03-23T10:21:09;11.70;91.30
19256;DHT22;9762;52.490;13.410;2024-03-23T10:23:46;11.70;91.50
19256;DHT22;9762;52.490;13.410;2024-03-23T10:26:20;11.70;91.40
19256;DHT22;9762;52.490;13.410;2024-03-23T10:31:34;11.80;91.30
19256;DHT22;9762;52.490;13.410;2024-03-23T10:34:03;11.90;91.30
19256;DHT22;9762;52.490;13.410;2024-03-23T10:36:29;11.90;91.20
19256;DHT22;9762;52.490;13.410;2024-03-23T10:38:56;11.90;91.00
19256;DHT22;9762;52.490;13.410;2024-03-23T10:41:27;12.00;91.10
19256;DHT22;9762;52.490;13.410;2024-03-23T10:43:53;12.10;91.00
19256;DHT22;9762;52.490;13.410;2024-03-23T10:46:20;12.00;91.20
19256;DHT22;9762;52.490;13.410;2024-03-23T10:48:46;12.00;91.10
19256;DHT22;9762;52.490;13.410;2024-03-23T10:51:12;11.80;90.60
19256;DHT22;9762;52.490;13.410;2024-03-23T10:53:39;11.70;91.40
19256;DHT22;9762;52.490;13.410;2024-03-23T10:56:06;11.70;91.60
19256;DHT22;9762;52.490;13.410;2024-03-23T10:58:46;11.80;91.90
19256;DHT22;9762;52.490;13.410;2024-03-23T11:01:13;11.90;92.40
19256;DHT22;9762;52.490;13.410;2024-03-23T11:03:44;11.90;91.70
19256;DHT22;9762;52.490;13.410;2024-03-23T11:06:10;11.90;92.00
19256;DHT22;9762;52.490;13.410;2024-03-23T11:08:37;12.00;91.50
19256;DHT22;9762;52.490;13.410;2024-03-23T11:13:38;12.10;91.50
19256;DHT22;9762;52.490;13.410;2024-03-23T11:18:40;12.20;91.60
19256;DHT22;9762;52.490;13.410;2024-03-23T11:21:07;12.20;91.00
19256;DHT22;9762;52.490;13.410;2024-03-23T11:23:33;12.30;90.70
19256;DHT22;9762;52.490;13.410;2024-03-23T11:25:58;12.30;90.20
19256;DHT22;9762;52.490;13.410;2024-03-23T11:28:24;12.30;89.20
19256;DHT22;9762;52.490;13.410;2024-03-23T11:30:50;12.20;88.00
19256;DHT22;9762;52.490;13.410;2024-03-23T11:33:15;12.20;88.20
19256;DHT22;9762;52.490;13.410;2024-03-23T11:35:41;12.20;88.20
19256;DHT22;9762;52.490;13.410;2024-03-23T11:38:12;12.20;89.00
19256;DHT22;9762;52.490;13.410;2024-03-23T11:40:39;12.20;90.40
19256;DHT22;9762;52.490;13.410;2024-03-23T11:43:07;12.30;90.10
19256;DHT22;9762;52.490;13.410;2024-03-23T11:45:37;12.30;90.10
19256;DHT22;9762;52.490;13.410;2024-03-23T11:50:29;12.50;90.80
19256;DHT22;9762;52.490;13.410;2024-03-23T11:53:07;12.60;90.80
19256;DHT22;9762;52.490;13.410;2024-03-23T11:55:58;12.70;90.40
19256;DHT22;9762;52.490;13.410;2024-03-23T11:58:25;12.80;90.40
19256;DHT22;9762;52.490;13.410;2024-03-23T12:00:59;12.90;90.30
19256;DHT22;9762;52.490;13.410;2024-03-23T12:03:26;12.90;90.20
19256;DHT22;9762;52.490;13.410;2024-03-23T12:05:57;12.90;89.70
19256;DHT22;9762;52.490;13.410;2024-03-23T12:08:31;12.90;89.80
19256;DHT22;9762;52.490;13.410;2024-03-23T12:11:12;12.70;89.20
19256;DHT22;9762;52.490;13.410;2024-03-23T12:13:40;12.70;89.90
19256;DHT22;9762;52.490;13.410;2024-03-23T12:16:36;12.60;90.20
19256;DHT22;9762;52.490;13.410;2024-03-23T12:19:05;12.60;90.40
19256;DHT22;9762;52.490;13.410;2024-03-23T12:21:31;12.60;90.50
19256;DHT22;9762;52.490;13.410;2024-03-23T12:23:57;12.60;90.10
19256;DHT22;9762;52.490;13.410;2024-03-23T12:26:24;12.40;89.30
19256;DHT22;9762;52.490;13.410;2024-03-23T12:28:49;12.40;90.30
19256;DHT22;9762;52.490;13.410;2024-03-23T12:31:15;12.40;90.70
19256;DHT22;9762;52.490;13.410;2024-03-23T12:33:41;12.40;91.10
19256;DHT22;9762;52.490;13.410;2024-03-23T12:36:06;12.30;91.40
19256;DHT22;9762;52.490;13.410;2024-03-23T12:38:32;12.40;91.50
19256;DHT22;9762;52.490;13.410;2024-03-23T12:40:58;12.50;91.20
19256;DHT22;9762;52.490;13.410;2024-03-23T12:43:23;12.50;91.60
19256;DHT22;9762;52.490;13.410;2024-03-23T12:45:49;12.50;91.70
19256;DHT22;9762;52.490;13.410;2024-03-23T12:48:16;12.50;91.70
19256;DHT22;9762;52.490;13.410;2024-03-23T12:50:41;12.50;91.60
19256;DHT22;9762;52.490;13.410;2024-03-23T12:53:07;12.60;91.00
19256;DHT22;9762;52.490;13.410;2024-03-23T12:55:35;12.50;89.40
19256;DHT22;9762;52.490;13.410;2024-03-23T12:58:01;12.40;89.60
19256;DHT22;9762;52.490;13.410;2024-03-23T13:00:26;12.40;89.90
19256;DHT22;9762;52.490;13.410;2024-03-23T13:02:52;12.40;90.00
19256;DHT22;9762;52.490;13.410;2024-03-23T13:05:18;12.40;90.10
19256;DHT22;9762;52.490;13.410;2024-03-23T13:07:46;12.40;90.30
19256;DHT22;9762;52.490;13.410;2024-03-23T13:10:11;12.40;90.20
19256;DHT22;9762;52.490;13.410;2024-03-23T13:12:37;12.50;90.00
19256;DHT22;9762;52.490;13.410;2024-03-23T13:15:03;12.50;90.20
19256;DHT22;9762;52.490;13.410;2024-03-23T13:17:29;12.70;90.70
19256;DHT22;9762;52.490;13.410;2024-03-23T13:19:55;12.70;90.70
19256;DHT22;9762;52.490;13.410;2024-03-23T13:22:23;12.90;91.00
19256;DHT22;9762;52.490;13.410;2024-03-23T13:24:49;13.00;91.10
19256;DHT22;9762;52.490;13.410;2024-03-23T13:27:15;13.20;91.80
19256;DHT22;9762;52.490;13.410;2024-03-23T13:29:41;13.60;92.60
19256;DHT22;9762;52.490;13.410;2024-03-23T13:32:07;14.20;92.30
19256;DHT22;9762;52.490;13.410;2024-03-23T13:34:33;14.80;92.20
19256;DHT22;9762;52.490;13.410;2024-03-23T13:37:00;15.50;89.20
19256;DHT22;9762;52.490;13.410;2024-03-23T13:39:26;16.10;87.90
19256;DHT22;9762;52.490;13.410;2024-03-23T13:41:54;16.80;87.20
19256;DHT22;9762;52.490;13.410;2024-03-23T13:44:21;17.50;82.90
19256;DHT22;9762;52.490;13.410;2024-03-23T13:46:47;18.20;81.80
19256;DHT22;9762;52.490;13.410;2024-03-23T13:49:30;18.80;78.50
19256;DHT22;9762;52.490;13.410;2024-03-23T13:51:58;19.40;75.60
19256;DHT22;9762;52.490;13.410;2024-03-23T13:54:27;20.00;73.30
19256;DHT22;9762;52.490;13.410;2024-03-23T13:56:55;20.30;70.40
19256;DHT22;9762;52.490;13.410;2024-03-23T13:59:21;20.70;67.60
19256;DHT22;9762;52.490;13.410;2024-03-23T14:01:48;21.00;67.60
19256;DHT22;9762;52.490;13.410;2024-03-23T14:04:14;21.20;64.80
19256;DHT22;9762;52.490;13.410;2024-03-23T14:06:42;21.30;65.60
19256;DHT22;9762;52.490;13.410;2024-03-23T14:09:10;21.50;63.10
19256;DHT22;9762;52.490;13.410;2024-03-23T14:11:36;21.50;62.50
19256;DHT22;9762;52.490;13.410;2024-03-23T14:14:06;21.60;61.00
19256;DHT22;9762;52.490;13.410;2024-03-23T14:16:33;21.50;62.70
19256;DHT22;9762;52.490;13.410;2024-03-23T14:18:59;21.40;61.30
19256;DHT22;9762;52.490;13.410;2024-03-23T14:21:25;21.20;61.40
19256;DHT22;9762;52.490;13.410;2024-03-23T14:23:50;20.80;61.40
19256;DHT22;9762;52.490;13.410;2024-03-23T14:26:16;20.30;62.20
19256;DHT22;9762;52.490;13.410;2024-03-23T14:28:42;20.00;63.20
19256;DHT22;9762;52.490;13.410;2024-03-23T14:31:08;19.70;64.70
19256;DHT22;9762;52.490;13.410;2024-03-23T14:33:39;19.20;65.20
19256;DHT22;9762;52.490;13.410;2024-03-23T14:36:15;18.80;66.20
19256;DHT22;9762;52.490;13.410;2024-03-23T14:38:42;18.10;65.70
19256;DHT22;9762;52.490;13.410;2024-03-23T14:41:08;17.70;66.10
19256;DHT22;9762;52.490;13.410;2024-03-23T14:43:33;17.40;68.00
19256;DHT22;9762;52.490;13.410;2024-03-23T14:46:16;17.30;69.20
19256;DHT22;9762;52.490;13.410;2024-03-23T14:48:43;17.00;68.00
19256;DHT22;9762;52.490;13.410;2024-03-23T14:51:09;16.50;66.50
19256;DHT22;9762;52.490;13.410;2024-03-23T14:53:37;16.10;68.20
19256;DHT22;9762;52.490;13.410;2024-03-23T14:56:03;15.70;70.60
19256;DHT22;9762;52.490;13.410;2024-03-23T14:58:29;15.30;74.00
19256;DHT22;9762;52.490;13.410;2024-03-23T15:01:02;14.90;77.10
19256;DHT22;9762;52.490;13.410;2024-03-23T15:03:29;14.50;79.60
19256;DHT22;9762;52.490;13.410;2024-03-23T15:05:59;14.20;79.70
19256;DHT22;9762;52.490;13.410;2024-03-23T15:08:28;14.10;81.60
19256;DHT22;9762;52.490;13.410;2024-03-23T15:10:54;14.00;82.60
19256;DHT22;9762;52.490;13.410;2024-03-23T15:13:20;14.00;83.60
19256;DHT22;9762;52.490;13.410;2024-03-23T15:15:48;14.00;84.40
19256;DHT22;9762;52.490;13.410;2024-03-23T15:18:17;14.10;84.90
19256;DHT22;9762;52.490;13.410;2024-03-23T15:20:54;14.10;84.60
19256;DHT22;9762;52.490;13.410;2024-03-23T15:23:21;14.30;84.50
19256;DHT22;9762;52.490;13.410;2024-03-23T15:25:54;14.40;84.60
19256;DHT22;9762;52.490;13.410;2024-03-23T15:28:19;14.50;85.40
19256;DHT22;9762;52.490;13.410;2024-03-23T15:30:45;14.60;85.20
19256;DHT22;9762;52.490;13.410;2024-03-23T15:33:11;14.60;83.10
19256;DHT22;9762;52.490;13.410;2024-03-23T15:35:37;14.60;83.60
19256;DHT22;9762;52.490;13.410;2024-03-23T15:38:02;14.60;82.20
19256;DHT22;9762;52.490;13.410;2024-03-23T15:40:29;14.60;81.80
19256;DHT22;9762;52.490;13.410;2024-03-23T15:42:54;14.50;82.60
19256;DHT22;9762;52.490;13.410;2024-03-23T15:45:20;14.50;83.10
19256;DHT22;9762;52.490;13.410;2024-03-23T15:47:46;14.50;82.90
19256;DHT22;9762;52.490;13.410;2024-03-23T15:50:11;14.30;82.30
19256;DHT22;9762;52.490;13.410;2024-03-23T15:52:37;14.30;82.70
19256;DHT22;9762;52.490;13.410;2024-03-23T15:55:04;14.30;83.10
19256;DHT22;9762;52.490;13.410;2024-03-23T15:57:35;14.30;83.70
19256;DHT22;9762;52.490;13.410;2024-03-23T16:00:02;14.30;83.70
19256;DHT22;9762;52.490;13.410;2024-03-23T16:02:27;14.30;84.80
19256;DHT22;9762;52.490;13.410;2024-03-23T16:04:54;14.30;83.40
19256;DHT22;9762;52.490;13.410;2024-03-23T16:07:19;14.20;82.60
19256;DHT22;9762;52.490;13.410;2024-03-23T16:09:45;14.20;82.50
19256;DHT22;9762;52.490;13.410;2024-03-23T16:12:10;14.20;82.10
19256;DHT22;9762;52.490;13.410;2024-03-23T16:14:36;14.10;81.90
19256;DHT22;9762;52.490;13.410;2024-03-23T16:17:02;14.10;82.90
19256;DHT22;9762;52.490;13.410;2024-03-23T16:19:28;14.00;82.50
19256;DHT22;9762;52.490;13.410;2024-03-23T16:21:53;14.00;82.00
19256;DHT22;9762;52.490;13.410;2024-03-23T16:24:21;13.90;81.50
19256;DHT22;9762;52.490;13.410;2024-03-23T16:26:46;13.80;82.10
19256;DHT22;9762;52.490;13.410;2024-03-23T16:29:12;13.70;81.70
19256;DHT22;9762;52.490;13.410;2024-03-23T16:31:38;13.60;82.10
19256;DHT22;9762;52.490;13.410;2024-03-23T16:34:03;13.50;82.50
19256;DHT22;9762;52.490;13.410;2024-03-23T16:36:29;13.40;82.50
19256;DHT22;9762;52.490;13.410;2024-03-23T16:38:55;13.30;82.30